Time;durP1;ratioP1;P1;durP2;ratioP2;P2;SDS_P1;SDS_P2;PMS_P1;PMS_P2;Temp;Humidity;BMP_temperature;BMP_pressure;BME280_temperature;BME280_humidity;BME280_pressure;Samples;Min_cycle;Max_cycle;Signal;HPM_P1;HPM_P2
2022/12/31 00:01:17;;;;;;;14.52;3.75;;;11.80;99.90;;;;;;5095137;28;20044;-61
2022/12/31 00:03:43;;;;;;;16.75;3.67;;;11.60;99.90;;;;;;5113362;28;20374;-61
2022/12/31 00:06:30;;;;;;;14.60;3.40;;;11.80;99.90;;;;;;5113237;28;20122;-61
2022/12/31 00:08:58;;;;;;;13.02;3.13;;;11.80;99.90;;;;;;5113652;28;20096;-61
2022/12/31 00:11:26;;;;;;;8.25;2.60;;;11.60;99.90;;;;;;5113336;28;20047;-62
2022/12/31 00:13:52;;;;;;;22.27;3.33;;;11.70;99.90;;;;;;5095086;28;20462;-61
2022/12/31 00:16:24;;;;;;;10.38;3.33;;;11.70;99.90;;;;;;5113559;28;20067;-61
2022/12/31 00:18:52;;;;;;;19.10;3.90;;;11.60;99.90;;;;;;5113291;28;20027;-61
2022/12/31 00:21:19;;;;;;;13.00;2.90;;;11.70;99.90;;;;;;5113385;28;20101;-62
2022/12/31 00:23:45;;;;;;;12.77;3.75;;;11.80;99.90;;;;;;5113145;28;20036;-61
2022/12/31 00:26:23;;;;;;;13.88;3.95;;;11.80;99.90;;;;;;5112610;28;20093;-61
2022/12/31 00:28:50;;;;;;;15.13;4.07;;;11.80;99.90;;;;;;5094665;28;20409;-61
2022/12/31 00:31:26;;;;;;;10.32;3.65;;;11.80;99.90;;;;;;5112957;28;20042;-62
2022/12/31 00:33:52;;;;;;;12.32;3.92;;;11.70;99.90;;;;;;5113222;28;20039;-62
2022/12/31 00:36:23;;;;;;;15.07;4.05;;;11.80;99.90;;;;;;5112839;28;20036;-62
2022/12/31 00:38:50;;;;;;;14.27;4.30;;;11.90;99.90;;;;;;5112591;28;20093;-62
2022/12/31 00:41:17;;;;;;;16.00;4.18;;;11.90;99.90;;;;;;5112592;28;20036;-61
2022/12/31 00:43:42;;;;;;;16.15;3.55;;;11.80;99.90;;;;;;5094391;28;20078;-61
2022/12/31 00:46:09;;;;;;;20.20;4.25;;;11.80;99.90;;;;;;5112507;28;20063;-62
2022/12/31 00:48:35;;;;;;;19.52;4.38;;;11.90;99.90;;;;;;5112596;28;20088;-61
2022/12/31 00:51:03;;;;;;;17.48;3.58;;;11.90;99.90;;;;;;5112857;28;20047;-61
2022/12/31 00:53:29;;;;;;;22.83;4.82;;;11.80;99.90;;;;;;5112658;28;20040;-61
2022/12/31 00:56:00;;;;;;;24.55;5.53;;;11.80;99.90;;;;;;5112523;28;20039;-61
2022/12/31 00:58:27;;;;;;;21.02;3.88;;;11.80;99.90;;;;;;5112489;28;20067;-61
2022/12/31 01:00:52;;;;;;;24.80;4.88;;;12.00;99.90;;;;;;5112240;28;20465;-62
2022/12/31 01:03:18;;;;;;;20.00;4.35;;;12.00;99.90;;;;;;5112707;28;20042;-61
2022/12/31 01:05:44;;;;;;;18.48;4.57;;;11.90;99.90;;;;;;5112540;28;20036;-62
2022/12/31 01:08:09;;;;;;;22.08;3.88;;;11.90;99.90;;;;;;5112312;28;20518;-61
2022/12/31 01:13:19;;;;;;;20.92;5.00;;;11.80;99.90;;;;;;5112330;28;20126;-62
2022/12/31 01:15:45;;;;;;;21.98;5.45;;;11.70;99.90;;;;;;5112368;28;20148;-62
2022/12/31 01:18:10;;;;;;;18.40;4.70;;;11.80;99.90;;;;;;5111983;28;20093;-62
2022/12/31 01:20:41;;;;;;;14.63;4.30;;;11.70;99.90;;;;;;5112067;28;20051;-61
2022/12/31 01:23:08;;;;;;;21.15;4.50;;;11.80;99.90;;;;;;5112323;28;20043;-62
2022/12/31 01:25:36;;;;;;;22.13;4.35;;;11.80;99.90;;;;;;5111964;28;20489;-62
2022/12/31 01:28:03;;;;;;;14.90;4.90;;;11.60;99.90;;;;;;5112615;28;20444;-62
2022/12/31 01:30:29;;;;;;;16.50;5.15;;;11.70;99.90;;;;;;5094133;28;20051;-62
2022/12/31 01:32:55;;;;;;;16.25;4.78;;;11.80;99.90;;;;;;5111976;28;20043;-62
2022/12/31 01:35:20;;;;;;;15.73;3.95;;;11.90;99.90;;;;;;5112100;28;20489;-62
2022/12/31 01:37:46;;;;;;;20.17;4.82;;;11.70;99.90;;;;;;5112167;28;20401;-61
2022/12/31 01:40:12;;;;;;;18.05;4.35;;;11.80;99.90;;;;;;5111987;28;20051;-61
2022/12/31 01:42:38;;;;;;;19.88;3.95;;;11.80;99.90;;;;;;5112363;28;20047;-62
2022/12/31 01:45:09;;;;;;;19.10;4.25;;;11.80;99.90;;;;;;5112219;28;20186;-62
2022/12/31 01:47:45;;;;;;;15.55;3.72;;;11.80;99.90;;;;;;5112072;28;20035;-62
2022/12/31 01:50:19;;;;;;;17.92;4.20;;;11.80;99.90;;;;;;5111928;28;20040;-62
2022/12/31 01:52:53;;;;;;;19.95;4.65;;;11.80;99.90;;;;;;5093380;28;20116;-62
2022/12/31 01:55:30;;;;;;;14.55;4.85;;;11.80;99.90;;;;;;5112352;28;20047;-61
2022/12/31 01:58:00;;;;;;;17.15;4.05;;;11.80;99.90;;;;;;5112019;28;20036;-62
2022/12/31 02:00:25;;;;;;;15.85;4.43;;;11.80;99.90;;;;;;5111619;28;20054;-62
2022/12/31 02:02:51;;;;;;;15.85;4.45;;;11.80;99.90;;;;;;5111954;28;20114;-61
2022/12/31 02:05:30;;;;;;;17.67;6.20;;;11.70;99.90;;;;;;5111971;28;20136;-61
2022/12/31 02:07:57;;;;;;;15.80;4.30;;;11.80;99.90;;;;;;5112026;28;20040;-61
2022/12/31 02:10:23;;;;;;;16.17;4.50;;;11.60;99.90;;;;;;5112296;28;20039;-61
2022/12/31 02:12:50;;;;;;;15.05;4.07;;;11.70;99.90;;;;;;5112187;28;20104;-62
2022/12/31 02:15:17;;;;;;;14.15;3.70;;;11.70;99.90;;;;;;5093955;28;20131;-62
2022/12/31 02:18:05;;;;;;;13.65;3.97;;;11.70;99.90;;;;;;5111849;28;20039;-62
2022/12/31 02:20:58;;;;;;;14.23;4.30;;;11.70;99.90;;;;;;5112301;28;20044;-61
2022/12/31 02:24:07;;;;;;;12.38;4.10;;;11.60;99.90;;;;;;5114765;28;20043;-61
2022/12/31 02:26:52;;;;;;;10.80;4.00;;;11.60;99.90;;;;;;5012962;28;20500;-61
2022/12/31 02:29:55;;;;;;;10.88;4.35;;;11.80;99.90;;;;;;5012934;28;20046;-61
2022/12/31 02:32:48;;;;;;;9.20;4.72;;;11.80;99.90;;;;;;5012822;28;20104;-62
2022/12/31 02:35:27;;;;;;;10.95;4.10;;;11.60;99.90;;;;;;5009990;28;20085;-63
2022/12/31 02:38:03;;;;;;;8.60;3.90;;;11.80;99.90;;;;;;5012632;28;20410;-61
2022/12/31 02:40:31;;;;;;;9.15;4.00;;;11.60;99.90;;;;;;5012732;28;20050;-61
2022/12/31 02:42:57;;;;;;;11.63;4.00;;;11.80;99.90;;;;;;5012625;28;20412;-61
2022/12/31 02:45:30;;;;;;;15.10;4.28;;;11.80;99.90;;;;;;5012764;28;20050;-62
2022/12/31 02:48:20;;;;;;;11.70;3.70;;;11.70;99.90;;;;;;5012467;28;20042;-61
2022/12/31 02:51:06;;;;;;;9.75;3.60;;;11.70;99.90;;;;;;5012411;28;20377;-61
2022/12/31 02:53:58;;;;;;;8.63;3.13;;;11.70;99.90;;;;;;5012445;28;20095;-62
2022/12/31 02:56:35;;;;;;;8.90;3.05;;;11.70;99.90;;;;;;4970244;28;20049;-62
2022/12/31 03:02:12;;;;;;;;;;;11.70;99.90;;;;;;5052252;28;20049;-62
2022/12/31 03:04:40;;;;;;;7.60;2.92;;;11.70;99.90;;;;;;5052084;28;19920;-62
2022/12/31 03:07:12;;;;;;;6.60;2.15;;;11.70;99.90;;;;;;5051807;28;20052;-61
2022/12/31 03:09:38;;;;;;;8.60;2.90;;;11.60;99.90;;;;;;5051622;28;20045;-61
2022/12/31 03:14:50;;;;;;;8.90;2.67;;;11.50;99.90;;;;;;5051642;28;20052;-62
2022/12/31 03:17:16;;;;;;;6.57;2.53;;;11.50;99.90;;;;;;5051635;28;20086;-61
2022/12/31 03:22:26;;;;;;;7.05;2.30;;;11.60;99.90;;;;;;5051551;28;20123;-61
2022/12/31 03:27:37;;;;;;;8.10;2.00;;;11.50;99.90;;;;;;5051533;28;20419;-62
2022/12/31 03:30:03;;;;;;;7.00;2.10;;;11.50;99.90;;;;;;5051451;28;20037;-61
2022/12/31 03:32:29;;;;;;;5.45;1.88;;;11.40;99.90;;;;;;5064328;28;20051;-62
2022/12/31 03:34:54;;;;;;;7.10;1.98;;;11.50;99.90;;;;;;5114181;28;20039;-62
2022/12/31 03:37:21;;;;;;;5.60;1.70;;;11.30;99.90;;;;;;5114083;28;20031;-62
2022/12/31 03:39:46;;;;;;;5.40;1.70;;;11.30;99.90;;;;;;5113800;28;20032;-62
2022/12/31 03:42:12;;;;;;;6.85;1.65;;;11.40;99.90;;;;;;5113923;28;20389;-62
2022/12/31 03:44:37;;;;;;;3.80;1.10;;;11.40;99.90;;;;;;5113905;28;20038;-61
2022/12/31 03:47:03;;;;;;;8.30;1.70;;;11.20;99.90;;;;;;5113925;28;20035;-62
2022/12/31 03:49:29;;;;;;;10.63;1.52;;;11.30;99.90;;;;;;5095670;28;20381;-61
2022/12/31 03:51:54;;;;;;;6.18;1.77;;;11.20;99.90;;;;;;5114173;28;20043;-62
2022/12/31 03:54:20;;;;;;;4.30;1.20;;;11.20;99.90;;;;;;5113708;28;20035;-61
2022/12/31 03:56:45;;;;;;;5.15;1.13;;;11.20;99.90;;;;;;5113898;28;20460;-62
2022/12/31 03:59:11;;;;;;;6.65;1.77;;;11.10;99.90;;;;;;5113202;28;20088;-62
2022/12/31 04:01:37;;;;;;;3.25;1.10;;;11.20;99.90;;;;;;5113379;28;20044;-62
2022/12/31 04:04:02;;;;;;;3.90;1.10;;;11.20;99.90;;;;;;5113355;28;20123;-62
2022/12/31 04:06:28;;;;;;;5.07;0.93;;;11.10;99.90;;;;;;5113196;28;20118;-61
2022/12/31 04:08:54;;;;;;;3.38;1.10;;;11.00;99.90;;;;;;5113635;28;20049;-61
2022/12/31 04:11:19;;;;;;;5.20;1.02;;;11.20;99.90;;;;;;5095040;28;20094;-63
2022/12/31 04:13:45;;;;;;;6.35;1.00;;;11.20;99.90;;;;;;5113356;28;20043;-62
2022/12/31 04:16:10;;;;;;;4.65;1.00;;;11.20;99.90;;;;;;5113222;28;20385;-62
2022/12/31 04:18:36;;;;;;;3.40;1.00;;;11.10;99.90;;;;;;5112984;28;20035;-62
2022/12/31 04:21:03;;;;;;;5.43;1.05;;;11.20;99.90;;;;;;5113193;28;20035;-62
2022/12/31 04:23:28;;;;;;;2.13;0.90;;;11.20;99.90;;;;;;5113259;28;20042;-61
2022/12/31 04:25:54;;;;;;;4.95;0.93;;;11.20;99.90;;;;;;5112502;28;20051;-61
2022/12/31 04:28:20;;;;;;;5.25;1.38;;;11.10;99.90;;;;;;5113091;28;20082;-61
2022/12/31 04:30:45;;;;;;;9.50;1.60;;;11.10;99.90;;;;;;5112954;28;20119;-61
2022/12/31 04:33:11;;;;;;;4.35;1.10;;;11.10;99.90;;;;;;5112780;28;20101;-61
2022/12/31 04:35:37;;;;;;;7.97;1.60;;;11.20;99.90;;;;;;5113023;28;20587;-61
2022/12/31 04:38:03;;;;;;;5.90;1.40;;;11.20;99.90;;;;;;5113284;28;20045;-61
2022/12/31 04:40:28;;;;;;;5.95;1.90;;;11.10;99.90;;;;;;5113041;28;20042;-61
2022/12/31 04:42:54;;;;;;;7.45;1.70;;;11.10;99.90;;;;;;5112871;28;20487;-62
2022/12/31 04:45:19;;;;;;;5.10;1.70;;;11.00;99.90;;;;;;5112118;28;20110;-62
2022/12/31 04:47:45;;;;;;;9.23;2.33;;;11.10;99.90;;;;;;5112127;28;20038;-61
2022/12/31 04:50:11;;;;;;;6.78;1.95;;;11.20;99.90;;;;;;5112721;28;20075;-62
2022/12/31 04:52:36;;;;;;;3.83;1.58;;;11.20;99.90;;;;;;5113000;28;20039;-61
2022/12/31 04:55:02;;;;;;;5.45;2.42;;;11.10;99.90;;;;;;5112882;28;20035;-62
2022/12/31 04:57:28;;;;;;;5.78;1.75;;;11.20;99.90;;;;;;5112468;28;20031;-62
2022/12/31 04:59:53;;;;;;;8.70;2.20;;;11.00;99.90;;;;;;5112510;28;20493;-61
2022/12/31 05:02:19;;;;;;;6.25;2.13;;;11.20;99.90;;;;;;5112502;28;20071;-61
2022/12/31 05:04:44;;;;;;;5.38;1.88;;;11.00;99.90;;;;;;5112804;28;20092;-61
2022/12/31 05:07:10;;;;;;;7.85;2.63;;;11.20;99.90;;;;;;5112207;28;20089;-62
2022/12/31 05:09:36;;;;;;;4.65;1.50;;;11.20;99.90;;;;;;5112848;28;20481;-61
2022/12/31 05:12:02;;;;;;;3.70;1.52;;;11.10;99.90;;;;;;5094329;28;20771;-63
2022/12/31 05:14:27;;;;;;;7.80;1.73;;;11.10;99.90;;;;;;5112326;28;20070;-61
2022/12/31 05:16:53;;;;;;;8.07;1.90;;;11.10;99.90;;;;;;5112206;28;20043;-62
2022/12/31 05:19:19;;;;;;;6.00;1.95;;;11.00;99.90;;;;;;5112558;28;20036;-61
2022/12/31 05:22:27;;;;;;;6.93;1.92;;;11.10;99.90;;;;;;5111946;28;20054;-61
2022/12/31 05:24:30;;;;;;;11.23;1.90;;;11.10;99.90;;;;;;5112020;28;20108;-61
2022/12/31 05:26:55;;;;;;;4.13;2.15;;;11.00;99.90;;;;;;5112255;28;20043;-62
2022/12/31 05:29:21;;;;;;;5.63;1.88;;;11.00;99.90;;;;;;5111794;28;20038;-61
2022/12/31 05:31:47;;;;;;;6.93;2.03;;;11.00;99.90;;;;;;5093869;28;20031;-61
2022/12/31 05:34:12;;;;;;;8.32;1.95;;;10.80;99.90;;;;;;5112255;28;20101;-62
2022/12/31 05:36:38;;;;;;;5.18;1.83;;;11.00;99.90;;;;;;5112284;28;20052;-62
2022/12/31 05:39:03;;;;;;;5.68;1.92;;;11.10;99.90;;;;;;5112284;28;20036;-61
2022/12/31 05:41:29;;;;;;;6.40;2.05;;;11.10;99.90;;;;;;5111701;28;20424;-61
2022/12/31 05:43:55;;;;;;;6.82;1.88;;;11.10;99.90;;;;;;5112364;28;20031;-62
2022/12/31 05:46:20;;;;;;;8.48;1.83;;;11.10;99.90;;;;;;5112528;28;20078;-62
2022/12/31 05:48:46;;;;;;;6.38;1.90;;;11.00;99.90;;;;;;5112556;28;20823;-62
2022/12/31 05:51:11;;;;;;;4.03;1.63;;;11.00;99.90;;;;;;5112064;28;20043;-61
2022/12/31 05:53:37;;;;;;;5.75;1.45;;;11.00;99.90;;;;;;5111718;28;20053;-62
2022/12/31 05:56:03;;;;;;;8.45;1.75;;;10.90;99.90;;;;;;5112815;28;20412;-62
2022/12/31 05:58:28;;;;;;;6.25;1.52;;;10.90;99.90;;;;;;5115776;28;20043;-61
2022/12/31 06:00:54;;;;;;;4.18;1.40;;;10.90;99.90;;;;;;5096949;28;20136;-62
2022/12/31 06:03:19;;;;;;;6.63;1.60;;;10.90;99.90;;;;;;5115752;28;20039;-62
2022/12/31 06:05:45;;;;;;;4.68;1.70;;;11.10;99.90;;;;;;5115671;28;20036;-61
2022/12/31 06:08:11;;;;;;;9.80;2.10;;;11.10;99.90;;;;;;5115881;28;20048;-62
2022/12/31 06:10:37;;;;;;;6.28;1.92;;;10.90;99.90;;;;;;5115514;28;20482;-62
2022/12/31 06:13:03;;;;;;;6.88;1.80;;;11.00;99.90;;;;;;5097330;28;20078;-62
2022/12/31 06:15:29;;;;;;;8.85;2.60;;;11.10;99.90;;;;;;5115736;28;20503;-62
2022/12/31 06:17:54;;;;;;;5.43;1.75;;;11.00;99.90;;;;;;5115623;28;20473;-62
2022/12/31 06:20:20;;;;;;;4.15;2.17;;;11.00;99.90;;;;;;5115131;28;20473;-61
2022/12/31 06:22:46;;;;;;;4.47;1.30;;;11.10;99.90;;;;;;5097383;28;20079;-62
2022/12/31 06:25:11;;;;;;;5.40;1.90;;;10.90;99.90;;;;;;5115432;28;20051;-61
2022/12/31 06:27:37;;;;;;;3.90;1.10;;;10.80;99.90;;;;;;5115127;28;20035;-61
2022/12/31 06:30:03;;;;;;;2.45;0.75;;;10.60;99.90;;;;;;5115706;28;20036;-62
2022/12/31 06:32:29;;;;;;;3.05;0.77;;;10.70;99.90;;;;;;5115135;28;20497;-61
2022/12/31 06:34:54;;;;;;;3.45;1.00;;;10.60;99.90;;;;;;5096816;28;20047;-62
2022/12/31 06:37:20;;;;;;;2.78;0.57;;;10.50;99.90;;;;;;5115318;28;20093;-62
2022/12/31 06:39:45;;;;;;;6.80;0.75;;;10.40;99.90;;;;;;5115236;28;20089;-62
2022/12/31 06:42:11;;;;;;;4.47;0.75;;;10.30;99.90;;;;;;5112872;28;20035;-62
2022/12/31 06:44:36;;;;;;;3.67;0.70;;;10.30;99.90;;;;;;5113151;28;20423;-63
2022/12/31 06:47:02;;;;;;;2.53;0.60;;;10.50;99.90;;;;;;5113112;28;20074;-62
2022/12/31 06:49:28;;;;;;;2.25;0.80;;;10.30;99.90;;;;;;5114665;28;20482;-62
2022/12/31 06:51:53;;;;;;;4.18;0.98;;;10.50;99.90;;;;;;5115168;28;20043;-62
2022/12/31 06:54:19;;;;;;;7.35;1.13;;;10.20;99.90;;;;;;5115036;28;20094;-62
2022/12/31 06:56:45;;;;;;;3.65;0.90;;;10.30;99.90;;;;;;5115042;28;20050;-62
2022/12/31 06:59:26;;;;;;;3.95;1.17;;;10.50;99.90;;;;;;5115203;28;20409;-62
2022/12/31 07:02:01;;;;;;;5.13;1.58;;;10.40;99.90;;;;;;5115140;28;20115;-63
2022/12/31 07:04:40;;;;;;;9.68;1.77;;;10.20;99.90;;;;;;5114877;28;20128;-62
2022/12/31 07:07:08;;;;;;;3.90;2.42;;;10.60;99.90;;;;;;5114706;28;20040;-62
2022/12/31 07:09:42;;;;;;;5.47;3.77;;;10.40;99.90;;;;;;5113946;28;20039;-62
2022/12/31 07:12:46;;;;;;;4.50;3.38;;;10.40;99.90;;;;;;5113873;28;20480;-62
2022/12/31 07:15:24;;;;;;;8.38;4.00;;;10.40;99.90;;;;;;5112927;28;20065;-62
2022/12/31 07:18:06;;;;;;;10.02;3.42;;;10.40;99.90;;;;;;5113787;28;20454;-62
2022/12/31 07:20:32;;;;;;;7.72;3.25;;;10.60;99.90;;;;;;5114350;28;20039;-61
2022/12/31 07:22:58;;;;;;;6.28;2.80;;;10.50;99.90;;;;;;5114535;28;20039;-61
2022/12/31 07:25:24;;;;;;;5.43;2.72;;;10.50;99.90;;;;;;5114475;28;20097;-62
2022/12/31 07:27:58;;;;;;;3.58;2.70;;;10.80;99.90;;;;;;5114465;28;20579;-62
2022/12/31 07:30:33;;;;;;;5.20;2.80;;;10.80;99.90;;;;;;5114641;28;20050;-62
2022/12/31 07:33:17;;;;;;;4.72;2.00;;;10.50;99.90;;;;;;5114409;28;20119;-62
2022/12/31 07:36:00;;;;;;;6.00;2.33;;;10.70;99.90;;;;;;5114144;28;20043;-62
2022/12/31 07:38:53;;;;;;;3.85;2.38;;;10.70;99.90;;;;;;5113959;28;20118;-61
2022/12/31 07:41:49;;;;;;;4.63;2.25;;;10.70;99.90;;;;;;5113985;28;20046;-62
2022/12/31 07:44:17;;;;;;;6.15;2.35;;;10.50;99.90;;;;;;5113979;28;20039;-62
2022/12/31 07:46:56;;;;;;;3.42;2.00;;;10.70;99.90;;;;;;5114106;28;20099;-62
2022/12/31 07:49:24;;;;;;;2.85;2.05;;;10.50;99.90;;;;;;5114271;28;20078;-61
2022/12/31 07:51:50;;;;;;;3.30;2.17;;;10.40;99.90;;;;;;5114147;28;20377;-62
2022/12/31 07:54:16;;;;;;;3.17;2.28;;;10.70;99.90;;;;;;5113830;28;20119;-62
2022/12/31 07:56:43;;;;;;;3.13;2.42;;;10.50;99.90;;;;;;5113603;28;20189;-62
2022/12/31 07:59:27;;;;;;;3.10;2.10;;;10.50;99.90;;;;;;5113858;28;20035;-61
2022/12/31 08:02:15;;;;;;;3.47;2.15;;;10.70;99.90;;;;;;5113892;28;20036;-62
2022/12/31 08:05:18;;;;;;;6.50;2.40;;;10.60;99.90;;;;;;5113658;28;20039;-62
2022/12/31 08:07:57;;;;;;;3.08;2.35;;;10.50;99.90;;;;;;5113623;28;20043;-61
2022/12/31 08:10:23;;;;;;;5.80;2.38;;;10.60;99.90;;;;;;5113574;28;20066;-62
2022/12/31 08:12:49;;;;;;;4.03;2.88;;;10.70;99.90;;;;;;5105337;28;20482;-62
2022/12/31 08:15:18;;;;;;;4.57;2.45;;;10.80;99.90;;;;;;5111702;28;20122;-62
2022/12/31 08:17:45;;;;;;;4.00;2.80;;;10.60;99.90;;;;;;5112890;28;20130;-61
2022/12/31 08:20:16;;;;;;;4.45;2.00;;;10.50;99.90;;;;;;5112054;28;20082;-62
2022/12/31 08:23:00;;;;;;;3.30;2.38;;;10.80;99.90;;;;;;5113251;28;20039;-62
2022/12/31 08:25:54;;;;;;;3.47;2.38;;;10.80;99.90;;;;;;5112927;28;20067;-61
2022/12/31 08:28:28;;;;;;;5.18;1.30;;;10.80;99.90;;;;;;5113258;28;20085;-61
2022/12/31 08:31:01;;;;;;;1.30;1.20;;;10.90;99.90;;;;;;5113034;28;20051;-62
2022/12/31 08:33:35;;;;;;;2.30;1.00;;;10.90;99.90;;;;;;5113048;28;20036;-62
2022/12/31 08:36:04;;;;;;;0.90;0.90;;;10.80;99.90;;;;;;5112479;28;20074;-61
2022/12/31 08:39:01;;;;;;;1.00;0.90;;;10.60;99.90;;;;;;5113181;28;20047;-61
2022/12/31 08:41:44;;;;;;;1.98;0.90;;;10.90;99.90;;;;;;5112621;28;20044;-61
2022/12/31 08:44:31;;;;;;;2.13;0.80;;;10.70;99.90;;;;;;5111416;28;20473;-62
2022/12/31 08:47:03;;;;;;;3.05;1.10;;;10.90;99.90;;;;;;5111764;28;20046;-61
2022/12/31 08:49:32;;;;;;;1.83;1.25;;;10.80;99.90;;;;;;5112885;28;20036;-61
2022/12/31 08:51:58;;;;;;;1.73;1.50;;;10.80;99.90;;;;;;5112881;28;20067;-62
2022/12/31 08:54:24;;;;;;;2.08;1.65;;;11.10;99.90;;;;;;5111702;28;20295;-61
2022/12/31 08:57:01;;;;;;;2.05;1.85;;;11.00;99.90;;;;;;5111535;28;20435;-62
2022/12/31 08:59:57;;;;;;;2.50;2.30;;;11.10;99.90;;;;;;5112593;28;20118;-60
2022/12/31 09:02:37;;;;;;;2.95;2.53;;;11.20;99.90;;;;;;5112653;28;20040;-61
2022/12/31 09:05:15;;;;;;;3.28;2.03;;;11.50;99.90;;;;;;5112318;28;20039;-62
2022/12/31 09:08:22;;;;;;;4.28;2.60;;;11.30;99.90;;;;;;5112538;28;20397;-61
2022/12/31 09:11:00;;;;;;;2.95;2.75;;;11.40;99.90;;;;;;5009903;28;20495;-61
2022/12/31 09:13:34;;;;;;;3.17;2.88;;;11.60;99.90;;;;;;5008956;28;20146;-60
2022/12/31 09:15:59;;;;;;;4.03;3.08;;;11.60;99.90;;;;;;5008650;28;20089;-59
2022/12/31 09:18:25;;;;;;;3.40;3.10;;;11.90;99.90;;;;;;5008736;28;20081;-61
2022/12/31 09:20:51;;;;;;;3.80;3.15;;;12.00;99.90;;;;;;5009368;28;20053;-61
2022/12/31 09:23:17;;;;;;;3.53;3.08;;;12.00;99.90;;;;;;5009579;28;20038;-60
2022/12/31 09:26:25;;;;;;;3.25;2.90;;;11.80;99.90;;;;;;5009658;28;20054;-60
2022/12/31 09:29:30;;;;;;;3.00;2.55;;;11.80;99.90;;;;;;4951212;29;20043;-60
2022/12/31 09:32:04;;;;;;;3.10;2.60;;;12.00;99.90;;;;;;4953571;28;20079;-61
2022/12/31 09:34:43;;;;;;;4.25;2.42;;;12.20;99.90;;;;;;4955326;28;20542;-61
2022/12/31 09:37:42;;;;;;;2.35;1.98;;;11.90;99.90;;;;;;4955237;29;20081;-60
2022/12/31 09:40:44;;;;;;;3.45;1.80;;;12.30;99.90;;;;;;4917134;29;20074;-61
2022/12/31 09:43:49;;;;;;;2.95;1.63;;;12.40;99.90;;;;;;4916838;29;20154;-60
2022/12/31 09:46:26;;;;;;;2.50;1.70;;;12.10;99.90;;;;;;4916574;29;20110;-61
2022/12/31 09:49:33;;;;;;;4.88;2.00;;;12.40;99.90;;;;;;4974455;28;20049;-60
2022/12/31 09:52:36;;;;;;;5.93;1.60;;;12.30;99.90;;;;;;4974060;28;20054;-60
2022/12/31 09:55:29;;;;;;;3.40;1.30;;;12.50;99.90;;;;;;4974004;28;20043;-60
2022/12/31 09:58:06;;;;;;;2.95;1.23;;;12.20;99.90;;;;;;4973963;28;20117;-60
2022/12/31 10:00:43;;;;;;;2.75;1.48;;;12.60;99.90;;;;;;4974002;28;20043;-60
2022/12/31 10:03:20;;;;;;;2.80;1.35;;;12.60;99.90;;;;;;4973900;28;20445;-60
2022/12/31 10:06:19;;;;;;;3.05;1.10;;;12.70;99.90;;;;;;5012124;28;20041;-60
2022/12/31 10:09:03;;;;;;;5.18;1.30;;;12.40;99.90;;;;;;5052956;28;20119;-61
2022/12/31 10:11:32;;;;;;;3.90;1.33;;;12.80;99.90;;;;;;5052586;28;20091;-60
2022/12/31 10:14:32;;;;;;;6.07;1.20;;;12.60;99.90;;;;;;5052730;28;20041;-60
2022/12/31 10:17:17;;;;;;;2.50;1.10;;;12.70;99.90;;;;;;5078767;28;20048;-61
2022/12/31 10:20:16;;;;;;;3.25;1.30;;;12.80;99.90;;;;;;5115496;28;20123;-61
2022/12/31 10:23:02;;;;;;;6.22;1.35;;;12.90;99.90;;;;;;5115301;28;20426;-60
2022/12/31 10:26:12;;;;;;;9.25;1.10;;;13.00;99.90;;;;;;5115105;28;20085;-61
2022/12/31 10:29:05;;;;;;;5.07;1.02;;;13.10;99.90;;;;;;5096886;28;20078;-61
2022/12/31 10:31:42;;;;;;;6.65;1.67;;;13.20;99.90;;;;;;5115123;28;20124;-60
2022/12/31 10:34:16;;;;;;;4.93;1.38;;;13.10;99.90;;;;;;5115248;28;20489;-61
2022/12/31 10:37:02;;;;;;;4.78;1.17;;;13.10;99.90;;;;;;5115197;28;20050;-60
2022/12/31 10:39:43;;;;;;;6.57;1.02;;;13.30;99.90;;;;;;5115024;28;20047;-61
2022/12/31 10:42:32;;;;;;;10.07;1.48;;;13.20;99.90;;;;;;5114519;28;20062;-61
2022/12/31 10:45:45;;;;;;;5.35;1.48;;;13.40;99.90;;;;;;5115006;28;20040;-61
2022/12/31 10:48:35;;;;;;;13.38;1.90;;;13.30;99.90;;;;;;5012368;28;20046;-62
2022/12/31 10:51:27;;;;;;;6.53;1.50;;;13.40;99.90;;;;;;5012384;28;20054;-61
2022/12/31 10:54:19;;;;;;;5.55;1.63;;;13.40;99.90;;;;;;4996083;28;20058;-61
2022/12/31 10:57:05;;;;;;;7.35;1.17;;;13.40;99.90;;;;;;5012272;28;20054;-61
2022/12/31 10:59:55;;;;;;;11.40;1.52;;;13.40;99.90;;;;;;4996060;28;20049;-61
2022/12/31 11:03:06;;;;;;;5.47;1.63;;;13.50;99.90;;;;;;5012102;28;20133;-61
2022/12/31 11:05:52;;;;;;;10.25;1.40;;;13.30;99.90;;;;;;5012091;28;20623;-61
2022/12/31 11:08:26;;;;;;;6.78;1.40;;;13.40;99.90;;;;;;5011947;28;20467;-62
2022/12/31 11:11:31;;;;;;;7.93;1.75;;;13.50;99.90;;;;;;5012009;28;20479;-61
2022/12/31 11:14:24;;;;;;;10.77;2.15;;;13.60;99.90;;;;;;5012204;28;20046;-60
2022/12/31 11:16:55;;;;;;;8.88;1.90;;;13.40;99.90;;;;;;5011851;28;20088;-61
2022/12/31 11:19:41;;;;;;;11.38;2.33;;;13.50;99.90;;;;;;5011711;28;20073;-61
2022/12/31 11:22:45;;;;;;;12.90;2.30;;;13.60;99.90;;;;;;5059947;28;20047;-61
2022/12/31 11:25:10;;;;;;;14.00;2.03;;;13.60;99.90;;;;;;5011664;28;20149;-61
2022/12/31 11:28:12;;;;;;;15.13;5.40;;;13.50;99.90;;;;;;4995491;28;20065;-60
2022/12/31 11:31:01;;;;;;;10.25;2.13;;;13.60;99.90;;;;;;5011603;28;20057;-61
2022/12/31 11:34:00;;;;;;;12.60;3.05;;;13.60;99.90;;;;;;5011597;28;20074;-60
2022/12/31 11:36:40;;;;;;;7.82;1.88;;;13.70;99.90;;;;;;5011488;28;20050;-61
2022/12/31 11:39:33;;;;;;;11.45;1.90;;;13.60;99.90;;;;;;4995256;28;20049;-61
2022/12/31 11:42:19;;;;;;;10.35;2.53;;;13.70;99.90;;;;;;5011204;28;20049;-61
2022/12/31 11:45:07;;;;;;;9.95;2.50;;;13.70;99.90;;;;;;5011355;28;20046;-61
2022/12/31 11:47:33;;;;;;;11.35;2.42;;;13.60;99.90;;;;;;5011356;28;20046;-61
2022/12/31 11:50:01;;;;;;;10.35;2.25;;;13.60;99.90;;;;;;5011040;28;20647;-61
2022/12/31 11:52:30;;;;;;;7.75;2.13;;;13.70;99.90;;;;;;5011093;28;20050;-60
2022/12/31 11:55:33;;;;;;;11.93;4.30;;;13.60;99.90;;;;;;5018221;28;20050;-61
2022/12/31 11:58:11;;;;;;;5.45;1.95;;;13.60;99.90;;;;;;5113470;28;20040;-61
2022/12/31 12:00:38;;;;;;;6.70;2.28;;;13.60;99.90;;;;;;5113213;28;20401;-60
2022/12/31 12:03:06;;;;;;;10.52;3.17;;;13.70;99.90;;;;;;5113560;28;20563;-61
2022/12/31 12:05:33;;;;;;;8.23;2.15;;;13.70;99.90;;;;;;5113389;28;20080;-60
2022/12/31 12:08:00;;;;;;;6.90;2.00;;;13.70;99.90;;;;;;5113410;28;20091;-61
2022/12/31 12:10:41;;;;;;;8.32;2.33;;;13.80;99.90;;;;;;5113034;28;20046;-59
2022/12/31 12:13:26;;;;;;;10.93;1.90;;;13.80;99.90;;;;;;5112031;28;20469;-61
2022/12/31 12:15:56;;;;;;;6.82;1.45;;;13.70;99.90;;;;;;5113649;28;20033;-61
2022/12/31 12:18:37;;;;;;;5.85;1.67;;;13.70;99.90;;;;;;5113125;28;20385;-60
2022/12/31 12:21:08;;;;;;;10.25;1.70;;;13.50;99.90;;;;;;5112918;28;20454;-61
2022/12/31 12:23:34;;;;;;;11.38;2.60;;;13.70;99.90;;;;;;5113104;28;20039;-61
2022/12/31 12:26:00;;;;;;;11.15;2.63;;;13.60;99.90;;;;;;5112639;28;20127;-60
2022/12/31 12:28:28;;;;;;;12.88;3.13;;;13.70;99.90;;;;;;5094502;28;20047;-60
2022/12/31 12:31:04;;;;;;;10.05;2.50;;;13.50;99.90;;;;;;5112931;28;20078;-60
2022/12/31 12:33:43;;;;;;;11.50;1.95;;;13.50;99.90;;;;;;5112842;28;20491;-60
2022/12/31 12:36:13;;;;;;;14.57;2.45;;;13.40;99.90;;;;;;5112731;28;20064;-60
2022/12/31 12:38:39;;;;;;;15.25;2.60;;;13.50;99.90;;;;;;5112837;28;20721;-61
2022/12/31 12:41:09;;;;;;;8.15;1.58;;;13.40;99.90;;;;;;5112999;28;20147;-60
2022/12/31 12:43:36;;;;;;;13.02;3.30;;;13.40;99.90;;;;;;5112497;28;20043;-61
2022/12/31 12:46:23;;;;;;;12.38;2.92;;;13.60;99.90;;;;;;5112705;28;20039;-61
2022/12/31 12:48:54;;;;;;;12.82;2.85;;;13.60;99.90;;;;;;5112485;28;20394;-60
2022/12/31 12:51:25;;;;;;;12.52;2.30;;;13.60;99.90;;;;;;5077130;28;20051;-61
2022/12/31 12:54:10;;;;;;;10.35;2.42;;;13.40;99.90;;;;;;5112241;28;20395;-61
2022/12/31 12:56:48;;;;;;;8.65;2.25;;;13.50;99.90;;;;;;5112282;28;20485;-61
2022/12/31 12:59:42;;;;;;;10.55;2.75;;;13.60;99.90;;;;;;5112416;28;20168;-61
2022/12/31 13:02:29;;;;;;;12.18;2.58;;;13.50;99.90;;;;;;5009919;28;20129;-60
2022/12/31 13:05:15;;;;;;;9.18;2.50;;;13.60;99.90;;;;;;5010118;28;20054;-60
2022/12/31 13:07:49;;;;;;;10.13;1.95;;;13.70;99.90;;;;;;5010150;28;20045;-60
2022/12/31 13:10:36;;;;;;;10.77;2.38;;;13.60;99.90;;;;;;5010333;28;20409;-60
2022/12/31 13:13:16;;;;;;;10.35;1.85;;;13.70;99.90;;;;;;5009880;28;20046;-61
2022/12/31 13:16:00;;;;;;;11.90;2.53;;;13.60;99.90;;;;;;5009986;28;20598;-61
2022/12/31 13:18:50;;;;;;;12.35;3.67;;;13.60;99.90;;;;;;5009925;28;20069;-62
2022/12/31 13:21:58;;;;;;;7.72;2.20;;;13.60;99.90;;;;;;5009774;28;20080;-61
2022/12/31 13:24:42;;;;;;;10.30;2.25;;;13.70;99.90;;;;;;4951433;29;20232;-60
2022/12/31 13:27:23;;;;;;;15.77;3.13;;;13.60;99.90;;;;;;4951477;29;20047;-61
2022/12/31 13:29:50;;;;;;;11.50;1.88;;;13.60;99.90;;;;;;4951545;28;20048;-62
2022/12/31 13:32:19;;;;;;;11.20;3.10;;;13.50;99.90;;;;;;4951537;29;20047;-61
2022/12/31 13:34:49;;;;;;;17.10;2.83;;;13.40;99.90;;;;;;4951448;29;20047;-60